sensor_id;sensor_type;location;lat;lon;timestamp;temperature;humidity
8633;DHT22;4354;49.832;10.746;2023-11-19T00:00:08;5.40;99.90
8633;DHT22;4354;49.832;10.746;2023-11-19T00:02:40;5.40;99.90
8633;DHT22;4354;49.832;10.746;2023-11-19T00:05:08;5.40;99.90
8633;DHT22;4354;49.832;10.746;2023-11-19T00:07:36;5.50;99.90
8633;DHT22;4354;49.832;10.746;2023-11-19T00:10:03;5.50;99.90
8633;DHT22;4354;49.832;10.746;2023-11-19T00:12:34;5.40;99.90
8633;DHT22;4354;49.832;10.746;2023-11-19T00:15:00;5.40;99.90
8633;DHT22;4354;49.832;10.746;2023-11-19T00:17:27;5.40;99.90
8633;DHT22;4354;49.832;10.746;2023-11-19T00:19:54;5.50;99.90
8633;DHT22;4354;49.832;10.746;2023-11-19T00:22:21;5.40;99.90
8633;DHT22;4354;49.832;10.746;2023-11-19T00:24:48;5.40;99.90
8633;DHT22;4354;49.832;10.746;2023-11-19T00:27:15;5.40;99.90
8633;DHT22;4354;49.832;10.746;2023-11-19T00:29:42;5.40;99.90
8633;DHT22;4354;49.832;10.746;2023-11-19T00:32:09;5.50;99.90
8633;DHT22;4354;49.832;10.746;2023-11-19T00:34:35;5.50;99.90
8633;DHT22;4354;49.832;10.746;2023-11-19T00:37:02;5.50;99.90
8633;DHT22;4354;49.832;10.746;2023-11-19T00:39:30;5.40;99.90
8633;DHT22;4354;49.832;10.746;2023-11-19T00:41:57;5.40;99.90
8633;DHT22;4354;49.832;10.746;2023-11-19T00:44:23;5.50;99.90
8633;DHT22;4354;49.832;10.746;2023-11-19T00:46:50;5.50;99.90
8633;DHT22;4354;49.832;10.746;2023-11-19T00:49:17;5.50;99.90
8633;DHT22;4354;49.832;10.746;2023-11-19T00:51:44;5.50;99.90
8633;DHT22;4354;49.832;10.746;2023-11-19T00:54:12;5.50;99.90
8633;DHT22;4354;49.832;10.746;2023-11-19T00:56:39;5.50;99.90
8633;DHT22;4354;49.832;10.746;2023-11-19T00:59:06;5.50;99.90
8633;DHT22;4354;49.832;10.746;2023-11-19T01:01:34;5.50;99.90
8633;DHT22;4354;49.832;10.746;2023-11-19T01:04:01;5.50;99.90
8633;DHT22;4354;49.832;10.746;2023-11-19T01:06:31;5.50;99.90
8633;DHT22;4354;49.832;10.746;2023-11-19T01:08:58;5.50;99.90
8633;DHT22;4354;49.832;10.746;2023-11-19T01:11:25;5.50;99.90
8633;DHT22;4354;49.832;10.746;2023-11-19T01:13:52;5.50;99.90
8633;DHT22;4354;49.832;10.746;2023-11-19T01:16:19;5.60;99.90
8633;DHT22;4354;49.832;10.746;2023-11-19T01:18:47;5.50;99.90
8633;DHT22;4354;49.832;10.746;2023-11-19T01:21:23;5.50;99.90
8633;DHT22;4354;49.832;10.746;2023-11-19T01:23:50;5.50;99.90
8633;DHT22;4354;49.832;10.746;2023-11-19T01:26:16;5.50;99.90
8633;DHT22;4354;49.832;10.746;2023-11-19T01:28:43;5.50;99.90
8633;DHT22;4354;49.832;10.746;2023-11-19T01:31:17;5.50;99.90
8633;DHT22;4354;49.832;10.746;2023-11-19T01:33:44;5.50;99.90
8633;DHT22;4354;49.832;10.746;2023-11-19T01:36:13;5.50;99.90
8633;DHT22;4354;49.832;10.746;2023-11-19T01:38:40;5.50;99.90
8633;DHT22;4354;49.832;10.746;2023-11-19T01:41:07;5.60;99.90
8633;DHT22;4354;49.832;10.746;2023-11-19T01:43:38;5.60;99.90
8633;DHT22;4354;49.832;10.746;2023-11-19T01:46:05;5.60;99.90
8633;DHT22;4354;49.832;10.746;2023-11-19T01:48:34;5.60;99.90
8633;DHT22;4354;49.832;10.746;2023-11-19T01:51:01;5.60;99.90
8633;DHT22;4354;49.832;10.746;2023-11-19T01:53:29;5.60;99.90
8633;DHT22;4354;49.832;10.746;2023-11-19T01:55:57;5.60;99.90
8633;DHT22;4354;49.832;10.746;2023-11-19T01:58:24;5.60;99.90
8633;DHT22;4354;49.832;10.746;2023-11-19T02:00:51;5.60;99.90
8633;DHT22;4354;49.832;10.746;2023-11-19T02:03:19;5.60;99.90
8633;DHT22;4354;49.832;10.746;2023-11-19T02:05:48;5.60;99.90
8633;DHT22;4354;49.832;10.746;2023-11-19T02:08:15;5.60;99.90
8633;DHT22;4354;49.832;10.746;2023-11-19T02:10:42;5.60;99.90
8633;DHT22;4354;49.832;10.746;2023-11-19T02:13:09;5.50;99.90
8633;DHT22;4354;49.832;10.746;2023-11-19T02:15:37;5.50;99.90
8633;DHT22;4354;49.832;10.746;2023-11-19T02:18:27;5.60;99.90
8633;DHT22;4354;49.832;10.746;2023-11-19T02:20:58;5.60;99.90
8633;DHT22;4354;49.832;10.746;2023-11-19T02:23:30;5.60;99.90
8633;DHT22;4354;49.832;10.746;2023-11-19T02:28:55;5.60;99.90
8633;DHT22;4354;49.832;10.746;2023-11-19T02:31:21;5.60;99.90
8633;DHT22;4354;49.832;10.746;2023-11-19T02:33:49;5.60;99.90
8633;DHT22;4354;49.832;10.746;2023-11-19T02:36:16;5.60;99.90
8633;DHT22;4354;49.832;10.746;2023-11-19T02:38:43;5.60;99.90
8633;DHT22;4354;49.832;10.746;2023-11-19T02:41:10;5.60;99.90
8633;DHT22;4354;49.832;10.746;2023-11-19T02:43:37;5.60;99.90
8633;DHT22;4354;49.832;10.746;2023-11-19T02:46:05;5.60;99.90
8633;DHT22;4354;49.832;10.746;2023-11-19T02:48:38;5.70;99.90
8633;DHT22;4354;49.832;10.746;2023-11-19T02:51:05;5.70;99.90
8633;DHT22;4354;49.832;10.746;2023-11-19T02:53:36;5.60;99.90
8633;DHT22;4354;49.832;10.746;2023-11-19T02:56:07;5.70;99.90
8633;DHT22;4354;49.832;10.746;2023-11-19T02:58:52;5.70;99.90
8633;DHT22;4354;49.832;10.746;2023-11-19T03:01:26;5.70;99.90
8633;DHT22;4354;49.832;10.746;2023-11-19T03:03:58;5.80;99.90
8633;DHT22;4354;49.832;10.746;2023-11-19T03:06:25;5.80;99.90
8633;DHT22;4354;49.832;10.746;2023-11-19T03:08:54;5.70;99.90
8633;DHT22;4354;49.832;10.746;2023-11-19T03:11:21;5.70;99.90
8633;DHT22;4354;49.832;10.746;2023-11-19T03:13:48;5.70;99.90
8633;DHT22;4354;49.832;10.746;2023-11-19T03:16:15;5.70;99.90
8633;DHT22;4354;49.832;10.746;2023-11-19T03:18:43;5.80;99.90
8633;DHT22;4354;49.832;10.746;2023-11-19T03:21:10;5.80;99.90
8633;DHT22;4354;49.832;10.746;2023-11-19T03:23:37;5.80;99.90
8633;DHT22;4354;49.832;10.746;2023-11-19T03:26:04;5.80;99.90
8633;DHT22;4354;49.832;10.746;2023-11-19T03:28:32;5.80;99.90
8633;DHT22;4354;49.832;10.746;2023-11-19T03:30:59;5.80;99.90
8633;DHT22;4354;49.832;10.746;2023-11-19T03:33:26;5.80;99.90
8633;DHT22;4354;49.832;10.746;2023-11-19T03:35:56;5.80;99.90
8633;DHT22;4354;49.832;10.746;2023-11-19T03:38:24;5.80;99.90
8633;DHT22;4354;49.832;10.746;2023-11-19T03:40:51;5.80;99.90
8633;DHT22;4354;49.832;10.746;2023-11-19T03:43:18;5.80;99.90
8633;DHT22;4354;49.832;10.746;2023-11-19T03:45:48;5.80;99.90
8633;DHT22;4354;49.832;10.746;2023-11-19T03:48:16;5.80;99.90
8633;DHT22;4354;49.832;10.746;2023-11-19T03:50:43;5.80;99.90
8633;DHT22;4354;49.832;10.746;2023-11-19T03:53:11;5.90;99.90
8633;DHT22;4354;49.832;10.746;2023-11-19T03:55:39;5.90;99.90
8633;DHT22;4354;49.832;10.746;2023-11-19T03:58:05;5.90;99.90
8633;DHT22;4354;49.832;10.746;2023-11-19T04:00:32;5.90;99.90
8633;DHT22;4354;49.832;10.746;2023-11-19T04:02:59;5.90;99.90
8633;DHT22;4354;49.832;10.746;2023-11-19T04:05:27;5.90;99.90
8633;DHT22;4354;49.832;10.746;2023-11-19T04:07:54;6.00;99.90
8633;DHT22;4354;49.832;10.746;2023-11-19T04:10:21;6.00;99.90
8633;DHT22;4354;49.832;10.746;2023-11-19T04:12:49;6.00;99.90
8633;DHT22;4354;49.832;10.746;2023-11-19T04:15:16;6.00;99.90
8633;DHT22;4354;49.832;10.746;2023-11-19T04:17:43;6.10;99.90
8633;DHT22;4354;49.832;10.746;2023-11-19T04:20:10;6.00;99.90
8633;DHT22;4354;49.832;10.746;2023-11-19T04:22:40;6.10;99.90
8633;DHT22;4354;49.832;10.746;2023-11-19T04:25:07;6.10;99.90
8633;DHT22;4354;49.832;10.746;2023-11-19T04:27:35;6.10;99.90
8633;DHT22;4354;49.832;10.746;2023-11-19T04:30:02;6.10;99.90
8633;DHT22;4354;49.832;10.746;2023-11-19T04:32:30;6.10;99.90
8633;DHT22;4354;49.832;10.746;2023-11-19T04:34:57;6.10;99.90
8633;DHT22;4354;49.832;10.746;2023-11-19T04:37:24;6.20;99.90
8633;DHT22;4354;49.832;10.746;2023-11-19T04:39:51;6.20;99.90
8633;DHT22;4354;49.832;10.746;2023-11-19T04:42:18;6.20;99.90
8633;DHT22;4354;49.832;10.746;2023-11-19T04:44:45;6.20;99.90
8633;DHT22;4354;49.832;10.746;2023-11-19T04:47:11;6.20;99.90
8633;DHT22;4354;49.832;10.746;2023-11-19T04:49:41;6.20;99.90
8633;DHT22;4354;49.832;10.746;2023-11-19T04:52:11;6.20;99.90
8633;DHT22;4354;49.832;10.746;2023-11-19T04:54:42;6.30;99.90
8633;DHT22;4354;49.832;10.746;2023-11-19T04:57:12;6.50;99.90
8633;DHT22;4354;49.832;10.746;2023-11-19T04:59:39;6.60;99.90
8633;DHT22;4354;49.832;10.746;2023-11-19T05:02:06;6.70;99.90
8633;DHT22;4354;49.832;10.746;2023-11-19T05:04:33;6.80;99.90
8633;DHT22;4354;49.832;10.746;2023-11-19T05:07:00;6.80;99.90
8633;DHT22;4354;49.832;10.746;2023-11-19T05:09:27;6.90;99.90
8633;DHT22;4354;49.832;10.746;2023-11-19T05:11:54;6.90;99.90
8633;DHT22;4354;49.832;10.746;2023-11-19T05:14:20;6.90;99.90
8633;DHT22;4354;49.832;10.746;2023-11-19T05:16:48;7.00;99.90
8633;DHT22;4354;49.832;10.746;2023-11-19T05:19:16;7.00;99.90
8633;DHT22;4354;49.832;10.746;2023-11-19T05:21:43;7.00;99.90
8633;DHT22;4354;49.832;10.746;2023-11-19T05:24:10;7.10;99.90
8633;DHT22;4354;49.832;10.746;2023-11-19T05:26:39;7.00;99.90
8633;DHT22;4354;49.832;10.746;2023-11-19T05:29:05;7.00;99.90
8633;DHT22;4354;49.832;10.746;2023-11-19T05:31:32;7.10;99.90
8633;DHT22;4354;49.832;10.746;2023-11-19T05:34:03;7.10;99.90
8633;DHT22;4354;49.832;10.746;2023-11-19T05:36:30;7.10;99.90
8633;DHT22;4354;49.832;10.746;2023-11-19T05:38:57;7.10;99.90
8633;DHT22;4354;49.832;10.746;2023-11-19T05:41:24;7.10;99.90
8633;DHT22;4354;49.832;10.746;2023-11-19T05:43:50;7.10;99.90
8633;DHT22;4354;49.832;10.746;2023-11-19T05:46:18;7.10;99.90
8633;DHT22;4354;49.832;10.746;2023-11-19T05:48:46;7.10;99.90
8633;DHT22;4354;49.832;10.746;2023-11-19T05:51:14;7.10;99.90
8633;DHT22;4354;49.832;10.746;2023-11-19T05:53:44;7.10;99.90
8633;DHT22;4354;49.832;10.746;2023-11-19T05:56:12;7.10;99.90
8633;DHT22;4354;49.832;10.746;2023-11-19T05:58:40;7.10;99.90
8633;DHT22;4354;49.832;10.746;2023-11-19T06:01:07;7.10;99.90
8633;DHT22;4354;49.832;10.746;2023-11-19T06:03:35;7.30;99.90
8633;DHT22;4354;49.832;10.746;2023-11-19T06:06:03;7.30;99.90
8633;DHT22;4354;49.832;10.746;2023-11-19T06:08:31;7.30;99.90
8633;DHT22;4354;49.832;10.746;2023-11-19T06:10:58;7.30;99.90
8633;DHT22;4354;49.832;10.746;2023-11-19T06:13:27;7.30;99.90
8633;DHT22;4354;49.832;10.746;2023-11-19T06:15:54;7.40;99.90
8633;DHT22;4354;49.832;10.746;2023-11-19T06:18:21;7.50;99.90
8633;DHT22;4354;49.832;10.746;2023-11-19T06:20:50;7.70;99.90
8633;DHT22;4354;49.832;10.746;2023-11-19T06:23:16;7.80;99.90
8633;DHT22;4354;49.832;10.746;2023-11-19T06:25:43;7.90;99.90
8633;DHT22;4354;49.832;10.746;2023-11-19T06:28:10;8.00;99.90
8633;DHT22;4354;49.832;10.746;2023-11-19T06:30:37;8.10;99.90
8633;DHT22;4354;49.832;10.746;2023-11-19T06:33:04;8.10;99.90
8633;DHT22;4354;49.832;10.746;2023-11-19T06:35:31;8.10;99.90
8633;DHT22;4354;49.832;10.746;2023-11-19T06:38:03;8.00;99.90
8633;DHT22;4354;49.832;10.746;2023-11-19T06:40:32;8.00;99.90
8633;DHT22;4354;49.832;10.746;2023-11-19T06:42:59;8.00;99.90
8633;DHT22;4354;49.832;10.746;2023-11-19T06:45:26;8.10;99.90
8633;DHT22;4354;49.832;10.746;2023-11-19T06:47:53;8.20;99.90
8633;DHT22;4354;49.832;10.746;2023-11-19T06:50:20;8.20;99.90
8633;DHT22;4354;49.832;10.746;2023-11-19T06:52:47;8.20;99.90
8633;DHT22;4354;49.832;10.746;2023-11-19T06:55:14;8.30;99.90
8633;DHT22;4354;49.832;10.746;2023-11-19T06:57:41;8.30;99.90
8633;DHT22;4354;49.832;10.746;2023-11-19T07:00:08;8.30;99.90
8633;DHT22;4354;49.832;10.746;2023-11-19T07:02:35;8.40;99.90
8633;DHT22;4354;49.832;10.746;2023-11-19T07:05:02;8.50;99.90
8633;DHT22;4354;49.832;10.746;2023-11-19T07:07:34;8.70;99.90
8633;DHT22;4354;49.832;10.746;2023-11-19T07:10:02;8.80;99.90
8633;DHT22;4354;49.832;10.746;2023-11-19T07:12:30;8.90;99.90
8633;DHT22;4354;49.832;10.746;2023-11-19T07:14:57;8.90;99.90
8633;DHT22;4354;49.832;10.746;2023-11-19T07:17:24;8.90;99.90
8633;DHT22;4354;49.832;10.746;2023-11-19T07:19:51;8.90;99.90
8633;DHT22;4354;49.832;10.746;2023-11-19T07:22:18;9.00;99.90
8633;DHT22;4354;49.832;10.746;2023-11-19T07:24:45;9.10;99.90
8633;DHT22;4354;49.832;10.746;2023-11-19T07:27:11;9.20;99.90
8633;DHT22;4354;49.832;10.746;2023-11-19T07:29:39;9.20;99.90
8633;DHT22;4354;49.832;10.746;2023-11-19T07:32:06;9.30;99.90
8633;DHT22;4354;49.832;10.746;2023-11-19T07:34:34;9.50;99.90
8633;DHT22;4354;49.832;10.746;2023-11-19T07:37:00;9.50;99.90
8633;DHT22;4354;49.832;10.746;2023-11-19T07:39:29;9.50;99.90
8633;DHT22;4354;49.832;10.746;2023-11-19T07:41:56;9.50;99.90
8633;DHT22;4354;49.832;10.746;2023-11-19T07:44:23;9.50;99.90
8633;DHT22;4354;49.832;10.746;2023-11-19T07:46:51;9.50;99.90
8633;DHT22;4354;49.832;10.746;2023-11-19T07:49:18;9.50;99.90
8633;DHT22;4354;49.832;10.746;2023-11-19T07:51:44;9.60;99.90
8633;DHT22;4354;49.832;10.746;2023-11-19T07:54:11;9.50;99.90
8633;DHT22;4354;49.832;10.746;2023-11-19T07:56:38;9.50;99.90
8633;DHT22;4354;49.832;10.746;2023-11-19T07:59:05;9.60;99.90
8633;DHT22;4354;49.832;10.746;2023-11-19T08:01:33;9.60;99.90
8633;DHT22;4354;49.832;10.746;2023-11-19T08:04:00;9.70;99.90
8633;DHT22;4354;49.832;10.746;2023-11-19T08:06:28;9.70;99.90
8633;DHT22;4354;49.832;10.746;2023-11-19T08:08:55;9.70;99.90
8633;DHT22;4354;49.832;10.746;2023-11-19T08:11:23;9.80;99.90
8633;DHT22;4354;49.832;10.746;2023-11-19T08:13:49;9.70;99.90
8633;DHT22;4354;49.832;10.746;2023-11-19T08:16:16;9.80;99.90
8633;DHT22;4354;49.832;10.746;2023-11-19T08:18:43;9.80;99.90
8633;DHT22;4354;49.832;10.746;2023-11-19T08:21:10;9.80;99.90
8633;DHT22;4354;49.832;10.746;2023-11-19T08:23:37;9.80;99.90
8633;DHT22;4354;49.832;10.746;2023-11-19T08:26:05;9.80;99.90
8633;DHT22;4354;49.832;10.746;2023-11-19T08:28:33;9.80;99.90
8633;DHT22;4354;49.832;10.746;2023-11-19T08:31:02;9.80;99.90
8633;DHT22;4354;49.832;10.746;2023-11-19T08:33:31;9.80;99.90
8633;DHT22;4354;49.832;10.746;2023-11-19T08:35:58;9.80;99.90
8633;DHT22;4354;49.832;10.746;2023-11-19T08:38:25;9.90;99.90
8633;DHT22;4354;49.832;10.746;2023-11-19T08:40:55;9.90;99.90
8633;DHT22;4354;49.832;10.746;2023-11-19T08:43:27;9.90;99.90
8633;DHT22;4354;49.832;10.746;2023-11-19T08:45:54;9.90;99.90
8633;DHT22;4354;49.832;10.746;2023-11-19T08:48:21;10.00;99.90
8633;DHT22;4354;49.832;10.746;2023-11-19T08:50:48;10.10;99.90
8633;DHT22;4354;49.832;10.746;2023-11-19T08:53:15;10.10;99.90
8633;DHT22;4354;49.832;10.746;2023-11-19T08:55:42;10.20;99.90
8633;DHT22;4354;49.832;10.746;2023-11-19T08:58:09;10.20;99.90
8633;DHT22;4354;49.832;10.746;2023-11-19T09:00:36;10.30;99.90
8633;DHT22;4354;49.832;10.746;2023-11-19T09:03:03;10.20;99.90
8633;DHT22;4354;49.832;10.746;2023-11-19T09:05:30;10.30;99.90
8633;DHT22;4354;49.832;10.746;2023-11-19T09:07:58;10.20;99.90
8633;DHT22;4354;49.832;10.746;2023-11-19T09:10:25;10.30;99.90
8633;DHT22;4354;49.832;10.746;2023-11-19T09:12:51;10.30;99.90
8633;DHT22;4354;49.832;10.746;2023-11-19T09:15:20;10.40;99.90
8633;DHT22;4354;49.832;10.746;2023-11-19T09:17:47;10.40;99.90
8633;DHT22;4354;49.832;10.746;2023-11-19T09:20:14;10.50;99.90
8633;DHT22;4354;49.832;10.746;2023-11-19T09:22:42;10.60;99.90
8633;DHT22;4354;49.832;10.746;2023-11-19T09:25:09;10.70;99.90
8633;DHT22;4354;49.832;10.746;2023-11-19T09:27:36;11.00;99.90
8633;DHT22;4354;49.832;10.746;2023-11-19T09:30:04;11.30;99.90
8633;DHT22;4354;49.832;10.746;2023-11-19T09:32:31;11.50;99.90
8633;DHT22;4354;49.832;10.746;2023-11-19T09:34:58;11.50;99.90
8633;DHT22;4354;49.832;10.746;2023-11-19T09:37:25;11.40;99.90
8633;DHT22;4354;49.832;10.746;2023-11-19T09:39:52;11.40;99.90
8633;DHT22;4354;49.832;10.746;2023-11-19T09:42:20;11.30;99.90
8633;DHT22;4354;49.832;10.746;2023-11-19T09:44:47;11.40;99.90
8633;DHT22;4354;49.832;10.746;2023-11-19T09:47:16;11.40;99.90
8633;DHT22;4354;49.832;10.746;2023-11-19T09:49:44;11.40;99.90
8633;DHT22;4354;49.832;10.746;2023-11-19T09:52:11;11.60;99.90
8633;DHT22;4354;49.832;10.746;2023-11-19T09:54:37;12.10;99.90
8633;DHT22;4354;49.832;10.746;2023-11-19T09:57:06;12.70;99.90
8633;DHT22;4354;49.832;10.746;2023-11-19T09:59:35;13.40;99.90
8633;DHT22;4354;49.832;10.746;2023-11-19T10:02:02;14.70;99.90
8633;DHT22;4354;49.832;10.746;2023-11-19T10:04:30;15.20;32.40
8633;DHT22;4354;49.832;10.746;2023-11-19T10:06:59;15.20;1.00
8633;DHT22;4354;49.832;10.746;2023-11-19T10:09:26;15.10;1.00
8633;DHT22;4354;49.832;10.746;2023-11-19T10:11:53;14.70;1.00
8633;DHT22;4354;49.832;10.746;2023-11-19T10:14:23;15.80;1.00
8633;DHT22;4354;49.832;10.746;2023-11-19T10:16:50;17.10;1.00
8633;DHT22;4354;49.832;10.746;2023-11-19T10:19:20;17.50;99.90
8633;DHT22;4354;49.832;10.746;2023-11-19T10:21:47;16.90;1.00
8633;DHT22;4354;49.832;10.746;2023-11-19T10:24:14;16.40;99.90
8633;DHT22;4354;49.832;10.746;2023-11-19T10:26:57;16.30;1.00
8633;DHT22;4354;49.832;10.746;2023-11-19T10:29:24;16.40;1.00
8633;DHT22;4354;49.832;10.746;2023-11-19T10:32:00;16.00;1.00
8633;DHT22;4354;49.832;10.746;2023-11-19T10:34:47;15.60;99.90
8633;DHT22;4354;49.832;10.746;2023-11-19T10:37:27;16.30;92.60
8633;DHT22;4354;49.832;10.746;2023-11-19T10:39:55;16.40;99.90
8633;DHT22;4354;49.832;10.746;2023-11-19T10:42:22;16.80;1.00
8633;DHT22;4354;49.832;10.746;2023-11-19T10:44:49;17.30;1.00
8633;DHT22;4354;49.832;10.746;2023-11-19T10:47:19;17.40;99.90
8633;DHT22;4354;49.832;10.746;2023-11-19T10:50:03;17.40;99.90
8633;DHT22;4354;49.832;10.746;2023-11-19T10:52:30;16.80;99.90
8633;DHT22;4354;49.832;10.746;2023-11-19T10:55:00;16.80;99.90
8633;DHT22;4354;49.832;10.746;2023-11-19T10:57:30;17.00;99.90
8633;DHT22;4354;49.832;10.746;2023-11-19T11:00:01;17.00;99.90
8633;DHT22;4354;49.832;10.746;2023-11-19T11:02:35;16.60;99.90
8633;DHT22;4354;49.832;10.746;2023-11-19T11:05:05;15.90;99.90
8633;DHT22;4354;49.832;10.746;2023-11-19T11:07:32;16.30;1.00
8633;DHT22;4354;49.832;10.746;2023-11-19T11:10:07;16.90;1.00
8633;DHT22;4354;49.832;10.746;2023-11-19T11:12:37;16.90;99.90
8633;DHT22;4354;49.832;10.746;2023-11-19T11:15:11;16.90;99.90
8633;DHT22;4354;49.832;10.746;2023-11-19T11:17:41;16.30;1.00
8633;DHT22;4354;49.832;10.746;2023-11-19T11:20:10;15.70;1.00
8633;DHT22;4354;49.832;10.746;2023-11-19T11:40:15;13.80;1.00
8633;DHT22;4354;49.832;10.746;2023-11-19T11:42:46;13.80;1.00
8633;DHT22;4354;49.832;10.746;2023-11-19T11:45:14;13.90;1.00
8633;DHT22;4354;49.832;10.746;2023-11-19T11:50:17;13.60;1.00
8633;DHT22;4354;49.832;10.746;2023-11-19T11:55:27;13.30;1.00
8633;DHT22;4354;49.832;10.746;2023-11-19T11:57:55;13.20;1.00
8633;DHT22;4354;49.832;10.746;2023-11-19T12:00:39;13.00;1.00
8633;DHT22;4354;49.832;10.746;2023-11-19T12:03:07;12.80;1.00
8633;DHT22;4354;49.832;10.746;2023-11-19T12:05:46;12.70;1.00
8633;DHT22;4354;49.832;10.746;2023-11-19T12:08:15;12.60;1.00
8633;DHT22;4354;49.832;10.746;2023-11-19T12:10:47;12.40;7.30
8633;DHT22;4354;49.832;10.746;2023-11-19T12:13:19;12.30;26.70
8633;DHT22;4354;49.832;10.746;2023-11-19T12:16:08;12.30;35.90
8633;DHT22;4354;49.832;10.746;2023-11-19T12:18:36;12.30;50.00
8633;DHT22;4354;49.832;10.746;2023-11-19T12:21:05;12.40;27.50
8633;DHT22;4354;49.832;10.746;2023-11-19T12:23:32;12.50;10.90
8633;DHT22;4354;49.832;10.746;2023-11-19T12:26:00;12.50;13.40
8633;DHT22;4354;49.832;10.746;2023-11-19T12:28:26;12.50;13.10
8633;DHT22;4354;49.832;10.746;2023-11-19T12:31:07;12.40;22.90
8633;DHT22;4354;49.832;10.746;2023-11-19T12:33:35;12.40;46.70
8633;DHT22;4354;49.832;10.746;2023-11-19T12:36:02;12.90;69.20
8633;DHT22;4354;49.832;10.746;2023-11-19T12:38:31;13.20;33.70
8633;DHT22;4354;49.832;10.746;2023-11-19T12:43:29;13.60;1.00
8633;DHT22;4354;49.832;10.746;2023-11-19T12:45:57;13.50;1.00
8633;DHT22;4354;49.832;10.746;2023-11-19T12:48:24;13.40;1.00
8633;DHT22;4354;49.832;10.746;2023-11-19T12:50:58;13.10;1.00
8633;DHT22;4354;49.832;10.746;2023-11-19T12:53:26;13.00;9.50
8633;DHT22;4354;49.832;10.746;2023-11-19T12:55:54;13.00;20.80
8633;DHT22;4354;49.832;10.746;2023-11-19T12:58:35;12.80;15.30
8633;DHT22;4354;49.832;10.746;2023-11-19T13:01:04;12.80;16.40
8633;DHT22;4354;49.832;10.746;2023-11-19T13:03:33;12.80;31.10
8633;DHT22;4354;49.832;10.746;2023-11-19T13:06:08;12.80;36.80
8633;DHT22;4354;49.832;10.746;2023-11-19T13:08:50;12.80;49.70
8633;DHT22;4354;49.832;10.746;2023-11-19T13:11:34;13.00;58.70
8633;DHT22;4354;49.832;10.746;2023-11-19T13:14:04;13.30;53.70
8633;DHT22;4354;49.832;10.746;2023-11-19T13:16:32;13.60;25.80
8633;DHT22;4354;49.832;10.746;2023-11-19T13:19:00;13.80;30.90
8633;DHT22;4354;49.832;10.746;2023-11-19T13:21:27;13.80;1.00
8633;DHT22;4354;49.832;10.746;2023-11-19T13:23:54;13.90;1.00
8633;DHT22;4354;49.832;10.746;2023-11-19T13:26:21;13.80;1.00
8633;DHT22;4354;49.832;10.746;2023-11-19T13:28:48;13.70;1.00
8633;DHT22;4354;49.832;10.746;2023-11-19T13:31:15;13.50;1.00
8633;DHT22;4354;49.832;10.746;2023-11-19T13:33:42;13.30;1.00
8633;DHT22;4354;49.832;10.746;2023-11-19T13:36:09;13.20;1.30
8633;DHT22;4354;49.832;10.746;2023-11-19T13:38:40;13.10;1.00
8633;DHT22;4354;49.832;10.746;2023-11-19T13:41:08;13.10;20.30
8633;DHT22;4354;49.832;10.746;2023-11-19T13:43:36;13.10;1.80
8633;DHT22;4354;49.832;10.746;2023-11-19T13:46:03;13.00;10.20
8633;DHT22;4354;49.832;10.746;2023-11-19T13:48:31;13.00;18.50
8633;DHT22;4354;49.832;10.746;2023-11-19T13:50:57;12.90;14.90
8633;DHT22;4354;49.832;10.746;2023-11-19T13:53:24;12.80;1.00
8633;DHT22;4354;49.832;10.746;2023-11-19T13:55:51;12.80;1.00
8633;DHT22;4354;49.832;10.746;2023-11-19T13:58:18;12.70;1.00
8633;DHT22;4354;49.832;10.746;2023-11-19T14:00:45;12.70;1.00
8633;DHT22;4354;49.832;10.746;2023-11-19T14:03:11;12.80;1.00
8633;DHT22;4354;49.832;10.746;2023-11-19T14:05:39;12.80;1.00
8633;DHT22;4354;49.832;10.746;2023-11-19T14:08:08;12.80;1.00
8633;DHT22;4354;49.832;10.746;2023-11-19T14:10:51;12.80;1.00
8633;DHT22;4354;49.832;10.746;2023-11-19T14:13:18;12.80;1.00
8633;DHT22;4354;49.832;10.746;2023-11-19T14:15:45;12.70;1.00
8633;DHT22;4354;49.832;10.746;2023-11-19T14:18:16;12.60;1.00
8633;DHT22;4354;49.832;10.746;2023-11-19T14:20:42;12.50;1.00
8633;DHT22;4354;49.832;10.746;2023-11-19T14:23:10;12.40;1.00
8633;DHT22;4354;49.832;10.746;2023-11-19T14:25:37;12.30;1.00
8633;DHT22;4354;49.832;10.746;2023-11-19T14:28:04;12.10;1.00
8633;DHT22;4354;49.832;10.746;2023-11-19T14:30:32;12.00;1.00
8633;DHT22;4354;49.832;10.746;2023-11-19T14:33:01;11.90;1.00
8633;DHT22;4354;49.832;10.746;2023-11-19T14:35:28;11.80;1.00
8633;DHT22;4354;49.832;10.746;2023-11-19T14:37:56;11.80;1.00
8633;DHT22;4354;49.832;10.746;2023-11-19T14:40:23;11.70;1.00
8633;DHT22;4354;49.832;10.746;2023-11-19T14:43:08;11.60;1.00
8633;DHT22;4354;49.832;10.746;2023-11-19T14:45:38;11.50;1.00
8633;DHT22;4354;49.832;10.746;2023-11-19T14:48:15;11.50;1.00
8633;DHT22;4354;49.832;10.746;2023-11-19T14:50:42;11.40;1.00
8633;DHT22;4354;49.832;10.746;2023-11-19T14:53:09;11.20;1.00
8633;DHT22;4354;49.832;10.746;2023-11-19T14:55:35;11.10;1.00
8633;DHT22;4354;49.832;10.746;2023-11-19T14:58:02;11.00;2.00
8633;DHT22;4354;49.832;10.746;2023-11-19T15:00:36;11.00;1.00
8633;DHT22;4354;49.832;10.746;2023-11-19T15:03:03;10.90;1.00
8633;DHT22;4354;49.832;10.746;2023-11-19T15:05:30;10.80;1.10
8633;DHT22;4354;49.832;10.746;2023-11-19T15:07:57;10.70;1.40
8633;DHT22;4354;49.832;10.746;2023-11-19T15:10:24;10.60;6.00
8633;DHT22;4354;49.832;10.746;2023-11-19T15:12:52;10.60;1.00
8633;DHT22;4354;49.832;10.746;2023-11-19T15:15:20;10.50;1.00
8633;DHT22;4354;49.832;10.746;2023-11-19T15:17:49;10.60;1.00
8633;DHT22;4354;49.832;10.746;2023-11-19T15:20:17;10.60;1.00
8633;DHT22;4354;49.832;10.746;2023-11-19T15:22:45;10.60;1.00
8633;DHT22;4354;49.832;10.746;2023-11-19T15:25:13;10.50;1.00
8633;DHT22;4354;49.832;10.746;2023-11-19T15:27:39;10.50;1.00
8633;DHT22;4354;49.832;10.746;2023-11-19T15:30:07;10.40;1.00
8633;DHT22;4354;49.832;10.746;2023-11-19T15:32:37;10.30;1.00
8633;DHT22;4354;49.832;10.746;2023-11-19T15:35:04;10.10;1.00
8633;DHT22;4354;49.832;10.746;2023-11-19T15:37:34;10.10;1.00
8633;DHT22;4354;49.832;10.746;2023-11-19T15:40:01;10.00;1.00
8633;DHT22;4354;49.832;10.746;2023-11-19T15:42:31;10.00;1.00
8633;DHT22;4354;49.832;10.746;2023-11-19T15:44:57;9.90;1.00
8633;DHT22;4354;49.832;10.746;2023-11-19T15:47:24;10.00;1.00
8633;DHT22;4354;49.832;10.746;2023-11-19T15:49:51;10.10;1.00
8633;DHT22;4354;49.832;10.746;2023-11-19T15:52:18;10.10;1.00
8633;DHT22;4354;49.832;10.746;2023-11-19T15:54:45;10.20;1.00
8633;DHT22;4354;49.832;10.746;2023-11-19T15:57:14;10.20;1.00
8633;DHT22;4354;49.832;10.746;2023-11-19T15:59:41;10.30;1.00
8633;DHT22;4354;49.832;10.746;2023-11-19T16:02:08;10.40;1.00
8633;DHT22;4354;49.832;10.746;2023-11-19T16:04:35;10.50;1.00
8633;DHT22;4354;49.832;10.746;2023-11-19T16:07:02;10.50;1.00
8633;DHT22;4354;49.832;10.746;2023-11-19T16:09:29;10.60;1.00
8633;DHT22;4354;49.832;10.746;2023-11-19T16:11:55;10.70;1.00
8633;DHT22;4354;49.832;10.746;2023-11-19T16:14:23;10.80;1.00
8633;DHT22;4354;49.832;10.746;2023-11-19T16:16:51;10.80;1.00
8633;DHT22;4354;49.832;10.746;2023-11-19T16:19:19;10.80;1.00
8633;DHT22;4354;49.832;10.746;2023-11-19T16:21:46;10.80;1.00
8633;DHT22;4354;49.832;10.746;2023-11-19T16:24:14;10.70;1.00
8633;DHT22;4354;49.832;10.746;2023-11-19T16:26:41;10.60;1.00
8633;DHT22;4354;49.832;10.746;2023-11-19T16:29:08;10.60;1.00
8633;DHT22;4354;49.832;10.746;2023-11-19T16:31:35;10.50;1.00
8633;DHT22;4354;49.832;10.746;2023-11-19T16:34:02;10.40;1.00